KGLE/GLE METAR and TAF weather

Enter ICAO airport designator
Station Type Date Time Source
KGLE METAR 2020/09/26 23:55 UTC NOAA

KGLE 262355Z AUTO 16006KT 10SM CLR 26/16 A2981 RMK AO2 T02610156 10300 20261


Station Type Date Time Source
KGLE Decoded METAR 2020/09/26 23:55 UTC NOAA

Gainesville, Gainesville Municipal Airport, TX, United States (KGLE) 33-39-05N 097-11-49W
Sep 26, 2020 - 07:55 PM EDT / 2020.09.26 2355 UTC
Wind: from the SSE (160 degrees) at 7 MPH (6 KT):0
Visibility: 10 mile(s):0
Sky conditions: clear
Temperature: 79.0 F (26.1 C)
Dew Point: 60.1 F (15.6 C)
Relative Humidity: 52%
Pressure (altimeter): 29.81 in. Hg (1009 hPa)
ob: KGLE 262355Z AUTO 16006KT 10SM CLR 26/16 A2981 RMK AO2 T02610156 10300 20261
cycle: 0

Station Type Date Time Source
KGLE TAF UTC NOAA

Error!

Example: see airport list